Latest Coastal Weather Observations for Orbost

IDV60701

Issued at 11:51 pm EST Wednesday 24 August 2016 (issued every 10 minutes, with the page automatically refreshed every 10 minutes)

About coastal observations | Map of coastal stations | Coastal observations for VIC | Marine services | Other Formats
Station Details ID: 084145 Name: ORBOST Lat: -37.69 Lon: 148.47 Height: 62.65 m
Data from the previous 72 hours. | See also: Recent months at Orbost
Date/Time
EST
Temp
°C
Wind Pressure Rain since
9am
mm
Weather Cloud Vis
km
Sea
Height
m
Swell
Dir  Spd
kts
Gust
kts
hPa Trend Height
m
Period
s
Dir
24/11:30pm 6.9 NNW 2 5 1012.1 - 0.8 - - - - - - -
24/11:00pm 7.3 NW 3 5 1012.4 - 0.2 - - - - - - -
24/10:30pm 6.9 NNW 2 4 1012.4 - 0.0 - - - - - - -
24/10:00pm 7.8 N 3 4 1012.7 - 0.0 - - - - - - -
24/09:30pm 7.6 N 5 5 1012.8 - 0.0 - - - - - - -
24/09:00pm 7.4 N 4 5 1012.9 - 0.0 - - - - - - -
24/08:30pm 6.9 N 2 3 1012.8 - 0.0 - - - - - - -
24/08:00pm 7.1 NNW 3 3 1013.2 - 0.0 - - - - - - -
24/07:30pm 7.9 N 2 5 1013.1 - 0.0 - - - - - - -
24/07:00pm 7.2 N 2 3 1012.8 - 0.0 - - - - - - -
24/06:30pm 8.5 CALM 0 0 1012.4 - 0.0 - - - - - - -
24/06:00pm 8.6 CALM 0 0 1012.5 - 0.0 - - - - - - -
24/05:30pm 9.2 SSW 1 1 1012.7 - 0.0 - - - - - - -
24/05:00pm 10.2 S 2 4 1012.6 - 0.0 - - - - - - -
24/04:30pm 10.7 S 4 7 1012.4 - 0.0 - - - - - - -
24/04:00pm 10.8 SSW 5 6 1012.5 - 0.0 - - - - - - -
24/03:30pm 11.2 SSW 4 5 1012.6 - 0.0 - - - - - - -
24/03:00pm 10.9 S 4 8 1012.5 - 0.0 - - - - - - -
24/02:30pm 10.9 S 4 8 1012.6 - 0.0 - - - - - - -
24/02:00pm 11.2 S 6 10 1012.8 - 0.0 - - - - - - -
24/01:30pm 11.4 S 5 8 1013.1 - 0.0 - - - - - - -
24/01:00pm 12.7 WNW 3 5 1013.3 - 0.0 - - - - - - -
24/12:30pm 12.5 WSW 2 5 1013.8 - 0.0 - - - - - - -
24/12:00pm 11.9 W 2 4 1014.4 - 0.0 - - - - - - -
24/11:30am 11.5 SW 1 3 1014.8 - 0.0 - - - - - - -
24/11:00am 10.8 W 3 5 1015.1 - 0.0 - - - - - - -
24/10:30am 10.7 WNW 2 5 1015.5 - 0.0 - - - - - - -
24/10:00am 9.9 W 1 3 1015.8 - 0.0 - - - - - - -
24/09:30am 9.0 W 2 3 1016.1 - 0.0 - - - - - - -
24/09:00am 8.1 W 2 3 1016.4 - 0.0 - - - - - - -
24/08:30am 6.8 WNW 1 2 1016.7 - 0.0 - - - - - - -
24/08:00am 5.1 CALM 0 0 1016.7 - 0.0 - - - - - - -
24/07:30am 4.1 CALM 0 0 1016.5 - 0.0 - - - - - - -
24/07:00am 4.0 N 3 3 1016.4 - 0.0 - - - - - - -
24/06:30am 3.6 NW 2 2 1016.3 - 0.0 - - - - - - -
24/06:00am 4.4 NNW 2 2 1016.0 - 0.0 - - - - - - -
24/05:30am 4.8 N 3 3 1016.2 - 0.0 - - - - - - -
24/05:00am 5.0 N 3 4 1016.3 - 0.0 - - - - - - -
24/04:30am 4.9 N 3 4 1016.2 - 0.0 - - - - - - -
24/04:00am 6.5 CALM 0 0 1016.1 - 0.0 - - - - - - -
24/03:30am 7.2 N 2 3 1016.1 - 0.0 - - - - - - -
24/03:00am 7.4 NNE 1 2 1016.6 - 0.0 - - - - - - -
24/02:30am 7.2 W 1 2 1016.6 - 0.0 - - - - - - -
24/02:00am 7.5 NW 2 5 1017.1 - 0.0 - - - - - - -
24/01:30am 7.5 CALM 0 1 1017.4 - 0.0 - - - - - - -
24/01:00am 7.9 WNW 3 5 1017.6 - 0.0 - - - - - - -
24/12:30am 8.2 NNW 5 6 1017.6 - 0.0 - - - - - - -
24/12:00am 8.3 N 5 7 1017.8 - 0.0 - - - - - - -
 
Date/Time
EST
Temp
°C
Wind Pressure Rain since
9am
mm
Weather Cloud Vis
km
Sea
Height
m
Swell
Dir  Spd
kts
Gust
kts
hPa Trend Height
m
Period
s
Dir
23/11:30pm 8.0 NNW 3 5 1017.8 - 0.0 - - - - - - -
23/11:00pm 7.7 N 3 3 1017.6 - 0.0 - - - - - - -
23/10:30pm 6.9 NNW 2 3 1017.8 - 0.0 - - - - - - -
23/10:00pm 6.7 N 3 4 1017.8 - 0.0 - - - - - - -
23/09:30pm 7.2 N 5 5 1018.0 - 0.0 - - - - - - -
23/09:00pm 6.9 N 4 5 1017.9 - 0.0 - - - - - - -
23/08:30pm 6.7 N 4 5 1017.6 - 0.0 - - - - - - -
23/08:00pm 6.0 N 2 3 1017.2 - 0.0 - - - - - - -
23/07:30pm 5.9 CALM 0 0 1017.1 - 0.0 - - - - - - -
23/07:00pm 7.4 CALM 0 0 1017.1 - 0.0 - - - - - - -
23/06:30pm 7.2 CALM 0 0 1017.3 - 0.0 - - - - - - -
23/06:00pm 9.1 CALM 0 0 1017.3 - 0.0 - - - - - - -
23/05:30pm 10.2 S 1 2 1017.2 - 0.0 - - - - - - -
23/05:00pm 11.1 S 3 6 1016.9 - 0.0 - - - - - - -
23/04:30pm 11.9 SSW 4 7 1016.6 - 0.0 - - - - - - -
23/04:00pm 12.4 SW 5 7 1016.4 - 0.0 - - - - - - -
23/03:30pm 12.5 SSW 6 9 1016.2 - 0.0 - - - - - - -
23/03:00pm 12.5 SW 7 9 1016.3 - 0.0 - - - - - - -
23/02:30pm 12.6 SSW 7 11 1016.3 - 0.0 - - - - - - -
23/02:00pm 12.2 SSW 7 10 1016.1 - 0.0 - - - - - - -
23/01:30pm 12.5 SW 6 10 1016.0 - 0.0 - - - - - - -
23/01:00pm 12.4 WSW 5 11 1016.0 - 0.0 - - - - - - -
23/12:30pm 12.4 SW 7 11 1016.3 - 0.0 - - - - - - -
23/12:00pm 11.9 SW 9 11 1016.6 - 0.0 - - - - - - -
23/11:30am 11.9 SW 4 8 1016.9 - 0.0 - - - - - - -
23/11:00am 11.3 W 3 5 1017.1 - 0.0 - - - - - - -
23/10:30am 11.3 W 4 7 1017.4 - 0.0 - - - - - - -
23/10:00am 10.3 WNW 4 7 1017.4 - 0.0 - - - - - - -
23/09:30am 9.3 W 4 6 1017.2 - 0.0 - - - - - - -
23/09:00am 8.9 W 3 6 1017.1 - 2.6 Recent precip. - - - - - -
23/08:30am 8.4 WNW 2 4 1016.8 - 2.6 - - - - - - -
23/08:00am 8.1 WNW 3 5 1016.7 - 2.4 - - - - - - -
23/07:30am 8.2 NW 3 5 1016.3 - 2.2 - - - - - - -
23/07:00am 8.2 NW 3 5 1016.0 - 1.6 - - - - - - -
23/06:30am 8.0 NW 3 4 1015.7 - 1.4 - - - - - - -
23/06:00am 7.9 NW 3 5 1015.4 - 1.4 - - - - - - -
23/05:30am 7.5 NW 4 6 1015.1 - 1.4 - - - - - - -
23/05:00am 7.2 NW 3 4 1015.1 - 1.4 - - - - - - -
23/04:30am 7.9 NW 4 7 1014.9 - 1.4 - - - - - - -
23/04:00am 8.4 NW 3 5 1014.7 - 1.4 - - - - - - -
23/03:30am 8.8 WNW 4 6 1014.6 - 1.4 - - - - - - -
23/03:00am 8.7 NW 3 5 1014.7 - 1.4 - - - - - - -
23/02:30am 9.0 NNW 4 5 1014.7 - 1.4 - - - - - - -
23/02:00am 9.1 NNW 2 3 1014.7 - 1.4 - - - - - - -
23/01:30am 8.7 NW 3 5 1014.7 - 1.4 - - - - - - -
23/01:00am 9.0 NW 3 5 1014.9 - 1.4 - - - - - - -
23/12:30am 8.4 NW 3 5 1015.0 - 1.4 - - - - - - -
23/12:00am 8.2 NW 4 5 1015.1 - 1.4 - - - - - - -
 
Date/Time
EST
Temp
°C
Wind Pressure Rain since
9am
mm
Weather Cloud Vis
km
Sea
Height
m
Swell
Dir  Spd
kts
Gust
kts
hPa Trend Height
m
Period
s
Dir
22/11:30pm 8.0 NW 4 6 1014.9 - 1.4 - - - - - - -
22/11:00pm 8.3 NW 4 6 1015.0 - 1.4 - - - - - - -
22/10:30pm 7.4 NW 3 4 1014.9 - 1.4 - - - - - - -
22/10:00pm 7.9 WNW 3 3 1014.8 - 1.4 - - - - - - -
22/09:30pm 8.9 N 3 4 1014.8 - 1.4 - - - - - - -
22/09:00pm 8.5 N 1 3 1014.8 - 1.4 - - - - - - -
22/08:30pm 9.3 NNE 1 1 1014.7 - 1.4 - - - - - - -
22/08:00pm 9.9 NE 3 4 1014.6 - 1.4 - - - - - - -
22/07:30pm 10.0 NE 3 5 1014.3 - 1.4 - - - - - - -
22/07:00pm 9.9 NE 2 3 1014.2 - 1.4 - - - - - - -
22/06:30pm 9.8 NNE 2 3 1014.0 - 1.4 - - - - - - -
22/06:00pm 10.3 CALM 0 1 1013.5 - 1.4 - - - - - - -
22/05:30pm 10.7 CALM 0 0 1013.3 - 1.4 - - - - - - -
22/05:00pm 11.0 N 2 4 1013.0 - 1.4 - - - - - - -
22/04:30pm 11.1 NE 4 6 1012.8 - 1.4 - - - - - - -
22/04:00pm 11.3 ESE 4 6 1012.8 - 1.0 - - - - - - -
22/03:30pm 12.4 S 5 9 1012.9 - 0.2 - - - - - - -
22/03:00pm 15.1 NE 1 2 1012.5 - 0.2 - - - - - - -
22/02:30pm 16.1 WSW 3 5 1012.6 - 0.2 - - - - - - -
22/02:00pm 16.0 NNW 3 6 1012.8 - 0.2 - - - - - - -
22/01:30pm 15.5 N 5 7 1013.1 - 0.2 - - - - - - -
22/01:00pm 15.3 NW 4 6 1013.4 - 0.2 - - - - - - -
22/12:30pm 15.3 WNW 3 6 1013.7 - 0.2 - - - - - - -
22/12:00pm 14.5 W 2 4 1014.2 - 0.2 - - - - - - -
22/11:30am 13.5 WNW 1 2 1014.5 - 0.2 - - - - - - -
22/11:00am 12.4 WSW 1 2 1015.0 - 0.2 - - - - - - -
22/10:30am 11.3 ENE 3 4 1015.3 - 0.2 - - - - - - -
22/10:00am 10.6 ENE 1 3 1015.7 - 0.2 - - - - - - -
22/09:30am 9.5 E 3 4 1015.8 - 0.2 - - - - - - -
22/09:00am 9.0 ENE 2 3 1015.8 - 1.6 Recent precip. - - - - - -
22/08:30am 8.6 E 2 3 1015.6 - 1.6 - - - - - - -
22/08:00am 8.5 CALM 0 0 1015.7 - 1.4 - - - - - - -
22/07:30am 8.6 NNW 1 2 1015.4 - 1.4 - - - - - - -
22/07:00am 8.5 NNW 1 2 1015.1 - 1.4 - - - - - - -
22/06:30am 8.5 N 1 2 1014.7 - 1.2 - - - - - - -
22/06:00am 8.1 CALM 0 1 1014.6 - 1.2 - - - - - - -
22/05:30am 7.8 CALM 0 0 1014.3 - 1.2 - - - - - - -
22/05:00am 8.4 CALM 0 0 1014.0 - 1.2 - - - - - - -
22/04:30am 8.4 CALM 0 0 1013.8 - 1.2 - - - - - - -
22/04:00am 9.1 N 3 4 1013.8 - 1.2 - - - - - - -
22/03:30am 8.8 NNW 1 1 1014.0 - 1.2 - - - - - - -
22/03:00am 9.3 N 4 5 1014.2 - 1.2 - - - - - - -
22/02:30am 9.9 N 4 6 1014.3 - 1.2 - - - - - - -
22/02:00am 8.7 N 2 3 1014.4 - 1.2 - - - - - - -
22/01:30am 8.9 N 5 7 1014.4 - 1.2 - - - - - - -
22/01:00am 9.1 N 5 6 1014.3 - 1.2 - - - - - - -
22/12:30am 9.1 N 5 7 1014.5 - 1.2 - - - - - - -
22/12:00am 9.3 N 5 7 1014.5 - 1.2 - - - - - - -

Other Formats:

Comma delimited format used in spreadsheet applications
http://www.bom.gov.au/fwo/IDV60701/IDV60701.95918.axf

JavaScript Object Notation format (JSON) in row-major order
http://www.bom.gov.au/fwo/IDV60701/IDV60701.95918.json